Time;durP1;ratioP1;P1;durP2;ratioP2;P2;SDS_P1;SDS_P2;PMS_P1;PMS_P2;Temp;Humidity;BMP_temperature;BMP_pressure;BME280_temperature;BME280_humidity;BME280_pressure;Samples;Min_cycle;Max_cycle;Signal;HPM_P1;HPM_P2
2022/02/05 00:03:03;;;;;;;;;;;1.80;99.90;;;;;;4930556;28;19927;-70
2022/02/05 00:05:40;;;;;;;;;;;1.70;99.90;;;;;;4930577;28;19938;-66
2022/02/05 00:41:34;;;;;;;;;;;1.60;99.90;;;;;;4934412;28;19953;-68
2022/02/05 00:43:31;;;;;;;;;;;1.60;99.90;;;;;;4926867;28;19956;-66
2022/02/05 00:45:58;;;;;;;;;;;1.60;99.90;;;;;;4930299;28;20327;-68
2022/02/05 00:48:25;;;;;;;;;;;1.60;99.90;;;;;;4931839;28;20317;-69
2022/02/05 00:50:57;;;;;;;;;;;1.60;99.90;;;;;;4930222;28;21113;-65
2022/02/05 00:53:34;;;;;;;;;;;1.60;99.90;;;;;;4933994;28;20017;-67
2022/02/05 00:56:17;;;;;;;;;;;1.70;99.90;;;;;;4932535;28;20798;-64
2022/02/05 00:58:43;;;;;;;;;;;1.60;99.90;;;;;;4930993;28;20041;-64
2022/02/05 01:01:11;;;;;;;;;;;1.60;99.90;;;;;;4931447;28;19930;-68
2022/02/05 01:03:38;;;;;;;;;;;1.60;99.90;;;;;;4931493;28;19940;-66
2022/02/05 01:06:06;;;;;;;;;;;1.60;99.90;;;;;;4930903;28;19934;-68
2022/02/05 01:08:34;;;;;;;;;;;1.60;99.90;;;;;;4929385;28;20057;-68
2022/02/05 01:11:01;;;;;;;;;;;1.50;99.90;;;;;;4928034;28;19936;-66
2022/02/05 01:13:30;;;;;;;;;;;1.60;99.90;;;;;;4931144;28;20013;-69
2022/02/05 01:16:14;;;;;;;;;;;1.60;99.90;;;;;;4932120;28;20013;-66
2022/02/05 01:18:43;;;;;;;;;;;1.60;99.90;;;;;;4929157;28;20575;-64
2022/02/05 01:23:49;;;;;;;;;;;1.60;99.90;;;;;;4932583;28;21294;-68
2022/02/05 01:26:27;;;;;;;;;;;1.60;99.90;;;;;;4935631;28;20033;-67
2022/02/05 01:29:10;;;;;;;;;;;1.60;99.90;;;;;;4930864;28;19931;-64
2022/02/05 01:31:46;;;;;;;;;;;1.60;99.90;;;;;;4934091;28;20506;-66
2022/02/05 01:34:20;;;;;;;;;;;1.60;99.90;;;;;;4937759;28;20530;-66
2022/02/05 01:53:36;;;;;;;;;;;1.50;99.90;;;;;;4937226;28;19965;-68
2022/02/05 02:12:23;;;;;;;;;;;1.80;99.90;;;;;;4935379;28;19941;-68
2022/02/05 02:20:34;;;;;;;;;;;1.90;99.90;;;;;;4940380;28;20032;-67
2022/02/05 02:23:18;;;;;;;;;;;2.00;99.90;;;;;;4936346;28;21184;-66
2022/02/05 02:28:23;;;;;;;;;;;2.10;99.90;;;;;;4937308;28;19930;-67
2022/02/05 02:30:57;;;;;;;;;;;2.20;99.90;;;;;;4937120;28;20227;-72
2022/02/05 02:33:31;;;;;;;;;;;2.20;99.90;;;;;;4937375;28;20273;-64
2022/02/05 02:35:58;;;;;;;;;;;2.30;99.90;;;;;;4938824;28;19937;-65
2022/02/05 02:38:34;;;;;;;;;;;2.30;99.90;;;;;;4936132;28;19936;-67
2022/02/05 02:41:07;;;;;;;;;;;2.40;99.90;;;;;;4938164;28;24242;-66
2022/02/05 02:43:35;;;;;;;;;;;2.40;99.90;;;;;;4935021;28;20121;-67
2022/02/05 02:46:02;;;;;;;;;;;2.40;99.90;;;;;;4937518;28;20001;-69
2022/02/05 02:48:29;;;;;;;;;;;2.40;99.90;;;;;;4937347;28;20037;-70
2022/02/05 02:59:49;;;;;;;;;;;2.50;99.90;;;;;;4935403;28;20249;-65
2022/02/05 03:01:46;;;;;;;;;;;2.50;99.90;;;;;;4934955;28;19934;-69
2022/02/05 03:04:13;;;;;;;;;;;2.50;99.90;;;;;;4936323;28;19937;-66
2022/02/05 03:06:40;;;;;;;;;;;2.60;99.90;;;;;;4936368;28;20643;-66
2022/02/05 03:09:07;;;;;;;;;;;2.60;99.90;;;;;;4936802;28;20003;-67
2022/02/05 03:11:34;;;;;;;;;;;2.60;99.90;;;;;;4937162;28;20042;-65
2022/02/05 03:14:00;;;;;;;;;;;2.60;99.90;;;;;;4936720;28;19931;-63
2022/02/05 03:16:34;;;;;;;;;;;2.60;99.90;;;;;;4934887;28;19966;-68
2022/02/05 03:19:10;;;;;;;;;;;2.60;99.90;;;;;;4934613;28;20966;-70
2022/02/05 03:21:37;;;;;;;;;;;2.60;99.90;;;;;;4934291;28;19942;-67
2022/02/05 03:24:04;;;;;;;;;;;2.60;99.90;;;;;;4937326;28;20056;-66
2022/02/05 03:26:33;;;;;;;;;;;2.60;99.90;;;;;;4935442;28;19938;-70
2022/02/05 03:29:01;;;;;;;;;;;2.60;99.90;;;;;;4936867;28;21678;-64
2022/02/05 03:31:27;;;;;;;;;;;2.60;99.90;;;;;;4936362;28;19926;-66
2022/02/05 03:33:54;;;;;;;;;;;2.60;99.90;;;;;;4938535;28;20041;-66
2022/02/05 03:36:21;;;;;;;;;;;2.60;99.90;;;;;;4935232;28;20384;-65
2022/02/05 03:38:48;;;;;;;;;;;2.60;99.90;;;;;;4936065;28;20396;-64
2022/02/05 03:41:14;;;;;;;;;;;2.60;99.90;;;;;;4936111;28;20029;-65
2022/02/05 03:43:45;;;;;;;;;;;2.60;99.90;;;;;;4579847;28;9999790;-66
2022/02/05 03:46:12;;;;;;;;;;;2.50;99.90;;;;;;1353610;28;10001984;-66
2022/02/05 03:48:39;;;;;;;;;;;2.50;99.90;;;;;;4933567;28;20038;-71
2022/02/05 03:51:05;;;;;;;;;;;2.50;99.90;;;;;;4934846;28;20036;-69
2022/02/05 03:53:32;;;;;;;;;;;2.50;99.90;;;;;;4936491;28;20929;-64
2022/02/05 03:55:59;;;;;;;;;;;2.50;99.90;;;;;;4937786;28;19930;-68
2022/02/05 03:58:26;;;;;;;;;;;2.50;99.90;;;;;;4936536;28;19933;-68
2022/02/05 04:00:53;;;;;;;;;;;2.50;99.90;;;;;;4935858;28;19931;-66
2022/02/05 04:03:20;;;;;;;;;;;2.40;99.90;;;;;;4936542;28;19930;-68
2022/02/05 04:05:47;;;;;;;;;;;2.40;99.90;;;;;;4935934;28;20128;-63
2022/02/05 04:08:15;;;;;;;;;;;2.40;99.90;;;;;;4936408;28;19966;-66
2022/02/05 04:10:59;;;;;;;;;;;2.40;99.90;;;;;;4936191;28;19930;-65
2022/02/05 04:16:22;;;;;;;;;;;2.50;99.90;;;;;;4936080;28;19926;-69
2022/02/05 04:18:53;;;;;;;;;;;2.50;99.90;;;;;;4934603;28;19938;-65
2022/02/05 04:21:21;;;;;;;;;;;2.50;99.90;;;;;;4936255;28;19978;-66
2022/02/05 04:23:49;;;;;;;;;;;2.50;99.90;;;;;;4934846;28;20025;-65
2022/02/05 04:26:17;;;;;;;;;;;2.50;99.90;;;;;;4935470;28;20036;-64
2022/02/05 04:28:44;;;;;;;;;;;2.50;99.90;;;;;;4935437;28;19962;-65
2022/02/05 04:31:11;;;;;;;;;;;2.50;99.90;;;;;;4936140;28;19930;-64
2022/02/05 04:33:38;;;;;;;;;;;2.50;99.90;;;;;;4936735;28;19953;-65
2022/02/05 04:36:06;;;;;;;;;;;2.50;99.90;;;;;;4935299;28;19930;-67
2022/02/05 04:38:34;;;;;;;;;;;2.50;99.90;;;;;;4936884;28;20025;-66
2022/02/05 04:41:11;;;;;;;;;;;2.50;99.90;;;;;;4934019;28;19997;-68
2022/02/05 05:04:39;;;;;;;;;;;2.50;99.90;;;;;;4939068;28;19935;-69
2022/02/05 05:12:21;;;;;;;;;;;2.40;99.90;;;;;;4939565;28;20037;-71
2022/02/05 05:20:19;;;;;;;;;;;2.40;99.90;;;;;;4940741;28;19931;-66
2022/02/05 05:22:46;;;;;;;;;;;2.40;99.90;;;;;;4936010;28;21004;-67
2022/02/05 05:25:14;;;;;;;;;;;2.40;99.90;;;;;;4939329;28;20108;-64
2022/02/05 05:27:41;;;;;;;;;;;2.40;99.90;;;;;;4939537;28;20392;-67
2022/02/05 05:30:08;;;;;;;;;;;2.30;99.90;;;;;;4940379;28;20003;-65
2022/02/05 05:32:35;;;;;;;;;;;2.30;99.90;;;;;;4939495;28;19927;-71
2022/02/05 05:35:03;;;;;;;;;;;2.30;99.90;;;;;;4937795;28;19949;-68
2022/02/05 05:37:30;;;;;;;;;;;2.30;99.90;;;;;;4939086;28;20373;-65
2022/02/05 05:39:57;;;;;;;;;;;2.30;99.90;;;;;;4939108;28;20025;-66
2022/02/05 05:42:32;;;;;;;;;;;2.20;99.90;;;;;;4936645;28;19961;-70
2022/02/05 05:50:00;;;;;;;;;;;2.20;99.90;;;;;;4940112;28;19926;-66
2022/02/05 05:52:27;;;;;;;;;;;2.20;99.90;;;;;;4938690;28;19933;-69
2022/02/05 05:54:54;;;;;;;;;;;2.30;99.90;;;;;;4936723;28;19945;-65
2022/02/05 05:57:21;;;;;;;;;;;2.20;99.90;;;;;;4937289;28;19930;-63
2022/02/05 05:59:48;;;;;;;;;;;2.20;99.90;;;;;;4940356;28;19930;-64
2022/02/05 06:02:14;;;;;;;;;;;2.20;99.90;;;;;;4937765;28;19936;-63
2022/02/05 06:04:41;;;;;;;;;;;2.20;99.90;;;;;;4936167;28;19937;-64
2022/02/05 06:07:08;;;;;;;;;;;2.20;99.90;;;;;;4938499;28;19934;-66
2022/02/05 06:09:39;;;;;;;;;;;2.20;99.90;;;;;;4938961;28;21206;-65
2022/02/05 06:12:07;;;;;;;;;;;2.20;99.90;;;;;;4937963;28;19930;-66
2022/02/05 06:14:34;;;;;;;;;;;2.20;99.90;;;;;;4938161;28;20017;-63
2022/02/05 06:17:07;;;;;;;;;;;2.20;99.90;;;;;;4936735;28;19942;-67
2022/02/05 06:19:36;;;;;;;;;;;2.20;99.90;;;;;;4938390;28;19935;-67
2022/02/05 06:22:02;;;;;;;;;;;2.20;99.90;;;;;;4938974;28;19930;-66
2022/02/05 06:24:29;;;;;;;;;;;2.20;99.90;;;;;;4936697;28;20188;-67
2022/02/05 06:26:56;;;;;;;;;;;2.20;99.90;;;;;;4936218;28;20454;-66
2022/02/05 06:29:23;;;;;;;;;;;2.20;99.90;;;;;;4938174;28;19930;-66
2022/02/05 06:31:50;;;;;;;;;;;2.10;99.90;;;;;;4937523;28;20569;-69
2022/02/05 06:34:16;;;;;;;;;;;2.20;99.90;;;;;;4935849;28;19930;-69
2022/02/05 06:36:43;;;;;;;;;;;2.20;99.90;;;;;;4933343;28;20731;-65
2022/02/05 06:39:10;;;;;;;;;;;2.10;99.90;;;;;;4931801;28;20072;-71
2022/02/05 06:41:37;;;;;;;;;;;2.20;99.90;;;;;;4936034;28;20025;-65
2022/02/05 06:44:04;;;;;;;;;;;2.20;99.90;;;;;;4935882;28;20045;-65
2022/02/05 06:46:31;;;;;;;;;;;2.20;99.90;;;;;;4937385;28;20016;-68
2022/02/05 06:48:57;;;;;;;;;;;2.20;99.90;;;;;;4935807;28;20600;-67
2022/02/05 06:51:24;;;;;;;;;;;2.20;99.90;;;;;;4937312;28;20045;-63
2022/02/05 06:53:51;;;;;;;;;;;2.20;99.90;;;;;;4933005;28;19930;-69
2022/02/05 06:56:18;;;;;;;;;;;2.20;99.90;;;;;;4936474;28;19931;-66
2022/02/05 06:58:45;;;;;;;;;;;2.20;99.90;;;;;;4935339;28;19926;-67
2022/02/05 07:01:11;;;;;;;;;;;2.20;99.90;;;;;;4937876;28;20030;-66
2022/02/05 07:03:38;;;;;;;;;;;2.20;99.90;;;;;;4935258;28;19993;-64
2022/02/05 07:06:05;;;;;;;;;;;2.20;99.90;;;;;;4936762;28;19930;-64
2022/02/05 07:08:33;;;;;;;;;;;2.20;99.90;;;;;;4935887;28;20106;-65
2022/02/05 07:11:00;;;;;;;;;;;2.20;99.90;;;;;;4935531;28;20021;-64
2022/02/05 07:13:27;;;;;;;;;;;2.10;99.90;;;;;;4934881;28;19932;-65
2022/02/05 07:16:18;;;;;;;;;;;2.10;99.90;;;;;;4936301;28;19926;-66
2022/02/05 07:21:29;;;;;;;;;;;2.10;99.90;;;;;;4936615;28;20028;-69
2022/02/05 07:29:29;;;;;;;;;;;2.20;99.90;;;;;;4935174;28;20014;-64
2022/02/05 07:31:56;;;;;;;;;;;2.20;99.90;;;;;;4936238;28;20283;-65
2022/02/05 07:34:23;;;;;;;;;;;2.20;99.90;;;;;;4934356;28;20749;-66
2022/02/05 07:36:50;;;;;;;;;;;2.20;99.90;;;;;;4933552;28;19936;-66
2022/02/05 07:39:17;;;;;;;;;;;2.20;99.90;;;;;;4934650;28;19934;-64
2022/02/05 07:41:44;;;;;;;;;;;2.30;99.90;;;;;;4935356;28;20065;-66
2022/02/05 07:44:21;;;;;;;;;;;2.30;99.90;;;;;;3731739;28;10022747;-69
2022/02/05 07:46:50;;;;;;;;;;;2.30;99.90;;;;;;2381822;28;10002022;-64
2022/02/05 07:49:18;;;;;;;;;;;2.30;99.90;;;;;;4934943;28;19936;-66
2022/02/05 07:51:46;;;;;;;;;;;2.30;99.90;;;;;;4937068;28;20024;-67
2022/02/05 07:54:12;;;;;;;;;;;2.30;99.90;;;;;;4933836;28;21335;-65
2022/02/05 07:56:43;;;;;;;;;;;2.30;99.90;;;;;;4936142;28;20005;-68
2022/02/05 07:59:10;;;;;;;;;;;2.30;99.90;;;;;;4932348;28;20027;-71
2022/02/05 08:01:37;;;;;;;;;;;2.40;99.90;;;;;;4935145;28;19926;-69
2022/02/05 08:04:05;;;;;;;;;;;2.40;99.90;;;;;;4933041;28;20397;-67
2022/02/05 08:06:33;;;;;;;;;;;2.40;99.90;;;;;;4933446;28;20057;-64
2022/02/05 08:09:04;;;;;;;;;;;2.40;99.90;;;;;;4932915;28;20013;-66
2022/02/05 08:11:40;;;;;;;;;;;2.40;99.90;;;;;;4935928;28;20305;-66
2022/02/05 08:14:09;;;;;;;;;;;2.50;99.90;;;;;;4934097;28;20024;-66
2022/02/05 08:19:06;;;;;;;;;;;2.40;99.90;;;;;;4932827;28;19934;-68
2022/02/05 08:21:34;;;;;;;;;;;2.50;99.90;;;;;;4936464;28;19926;-66
2022/02/05 08:24:01;;;;;;;;;;;2.50;99.90;;;;;;4933407;28;19930;-65
2022/02/05 08:26:29;;;;;;;;;;;2.50;99.90;;;;;;4935482;28;19984;-71
2022/02/05 08:28:56;;;;;;;;;;;2.50;99.90;;;;;;4932855;28;20553;-67
2022/02/05 08:31:23;;;;;;;;;;;2.50;99.90;;;;;;4933511;28;19926;-66
2022/02/05 08:33:52;;;;;;;;;;;2.60;99.90;;;;;;4934518;28;19958;-68
2022/02/05 08:36:21;;;;;;;;;;;2.60;99.90;;;;;;4935888;28;20053;-64
2022/02/05 08:38:48;;;;;;;;;;;2.60;99.90;;;;;;4933589;28;19930;-69
2022/02/05 08:41:15;;;;;;;;;;;2.70;99.90;;;;;;4935438;28;20586;-66
2022/02/05 08:43:42;;;;;;;;;;;2.70;99.90;;;;;;4936023;28;20077;-67
2022/02/05 08:46:09;;;;;;;;;;;2.60;99.90;;;;;;4934527;28;20476;-64
2022/02/05 08:48:36;;;;;;;;;;;2.70;99.90;;;;;;4937095;28;20040;-65
2022/02/05 08:51:04;;;;;;;;;;;2.60;99.90;;;;;;4933190;28;19946;-63
2022/02/05 08:53:31;;;;;;;;;;;2.60;99.90;;;;;;4937027;28;19930;-67
2022/02/05 08:55:58;;;;;;;;;;;2.60;99.90;;;;;;4933838;28;20396;-66
2022/02/05 08:58:27;;;;;;;;;;;2.60;99.90;;;;;;4936888;28;20016;-67
2022/02/05 09:01:08;;;;;;;;;;;2.60;99.90;;;;;;4932947;28;20749;-66
2022/02/05 09:03:43;;;;;;;;;;;2.60;99.90;;;;;;4937493;28;19976;-65
2022/02/05 09:06:10;;;;;;;;;;;2.60;99.90;;;;;;4935145;28;19997;-67
2022/02/05 09:08:43;;;;;;;;;;;2.60;99.90;;;;;;4936008;28;20133;-65
2022/02/05 09:11:33;;;;;;;;;;;2.70;99.90;;;;;;4933197;28;19930;-69
2022/02/05 09:14:32;;;;;;;;;;;2.70;99.90;;;;;;4936158;28;20036;-70
2022/02/05 09:16:58;;;;;;;;;;;2.70;99.90;;;;;;4934506;28;19932;-67
2022/02/05 09:19:25;;;;;;;;;;;2.80;99.90;;;;;;4935458;28;21154;-64
2022/02/05 09:21:52;;;;;;;;;;;2.70;99.90;;;;;;4936434;28;20028;-65
2022/02/05 09:24:19;;;;;;;;;;;2.80;99.90;;;;;;4935126;28;20337;-65
2022/02/05 09:26:54;;;;;;;;;;;2.90;99.90;;;;;;4931194;28;19954;-65
2022/02/05 09:29:22;;;;;;;;;;;2.80;99.90;;;;;;4935721;28;20021;-67
2022/02/05 09:31:50;;;;;;;;;;;2.90;99.90;;;;;;4934589;28;20014;-67
2022/02/05 09:34:17;;;;;;;;;;;2.90;99.90;;;;;;4935404;28;20055;-63
2022/02/05 09:36:44;;;;;;;;;;;2.90;99.90;;;;;;4934987;28;19942;-66
2022/02/05 09:39:13;;;;;;;;;;;2.90;99.90;;;;;;4934536;28;19930;-66
2022/02/05 09:41:40;;;;;;;;;;;2.90;99.90;;;;;;4935606;28;20332;-66
2022/02/05 09:44:27;;;;;;;;;;;2.90;99.90;;;;;;4341897;28;10000263;-67
2022/02/05 09:46:54;;;;;;;;;;;2.90;99.90;;;;;;2042142;28;10002014;-67
2022/02/05 09:49:23;;;;;;;;;;;3.00;99.90;;;;;;4939289;28;20039;-63
2022/02/05 09:52:06;;;;;;;;;;;3.00;99.90;;;;;;4938855;28;19931;-67
2022/02/05 09:54:37;;;;;;;;;;;3.00;99.90;;;;;;4939354;28;19954;-67
2022/02/05 09:57:04;;;;;;;;;;;3.00;99.90;;;;;;4935628;28;19945;-64
2022/02/05 09:59:38;;;;;;;;;;;3.00;99.90;;;;;;4939498;28;20351;-64
2022/02/05 10:02:18;;;;;;;;;;;3.00;99.90;;;;;;4937499;28;19989;-67
2022/02/05 10:04:51;;;;;;;;;;;3.10;99.90;;;;;;4939226;28;20018;-67
2022/02/05 10:07:51;;;;;;;;;;;3.00;99.90;;;;;;4937984;28;20585;-64
2022/02/05 10:10:17;;;;;;;;;;;3.10;99.90;;;;;;4939149;28;20084;-66
2022/02/05 10:12:44;;;;;;;;;;;3.10;99.90;;;;;;4936545;28;19997;-69
2022/02/05 10:15:11;;;;;;;;;;;3.10;99.90;;;;;;4938506;28;20020;-63
2022/02/05 10:17:45;;;;;;;;;;;3.10;99.90;;;;;;4939042;28;20065;-66
2022/02/05 10:20:12;;;;;;;;;;;3.10;99.90;;;;;;4937910;28;20090;-66
2022/02/05 10:22:40;;;;;;;;;;;3.20;99.90;;;;;;4939880;28;20017;-66
2022/02/05 10:25:15;;;;;;;;;;;3.20;99.90;;;;;;4937339;28;19930;-64
2022/02/05 10:27:42;;;;;;;;;;;3.20;99.90;;;;;;4939329;28;20025;-67
2022/02/05 10:30:14;;;;;;;;;;;3.20;99.90;;;;;;4937763;28;19930;-65
2022/02/05 10:32:44;;;;;;;;;;;3.20;99.90;;;;;;4938533;28;20553;-63
2022/02/05 10:37:54;;;;;;;;;;;3.20;99.90;;;;;;4938233;28;19935;-67
2022/02/05 10:40:42;;;;;;;;;;;3.20;99.90;;;;;;4937167;28;19930;-63
2022/02/05 10:43:08;;;;;;;;;;;3.20;99.90;;;;;;4935836;28;20799;-65
2022/02/05 10:45:41;;;;;;;;;;;3.20;99.90;;;;;;4939269;28;19974;-63
2022/02/05 10:48:29;;;;;;;;;;;3.20;99.90;;;;;;4937826;28;19993;-66
2022/02/05 10:50:59;;;;;;;;;;;3.20;99.90;;;;;;4936808;28;19926;-66
2022/02/05 10:53:31;;;;;;;;;;;3.30;99.90;;;;;;4937092;28;20028;-65
2022/02/05 10:56:13;;;;;;;;;;;3.30;99.90;;;;;;4953456;28;19948;-65
2022/02/05 10:59:45;;;;;;;;;;;3.30;99.90;;;;;;4935961;28;20795;-68
2022/02/05 11:07:06;;;;;;;;;;;3.40;99.90;;;;;;4935820;28;20044;-67
2022/02/05 11:09:33;;;;;;;;;;;3.40;99.90;;;;;;4937407;28;19934;-67
2022/02/05 11:20:03;;;;;;;;;;;3.40;99.90;;;;;;4938874;28;19933;-65
2022/02/05 11:22:32;;;;;;;;;;;3.50;99.90;;;;;;4937211;28;20348;-68
2022/02/05 11:25:01;;;;;;;;;;;3.50;99.90;;;;;;4932766;28;19931;-67
2022/02/05 11:27:28;;;;;;;;;;;3.50;99.90;;;;;;4933811;28;19930;-66
2022/02/05 11:29:55;;;;;;;;;;;3.50;99.90;;;;;;4937668;28;19930;-65
2022/02/05 11:32:26;;;;;;;;;;;3.60;99.90;;;;;;4935660;28;20112;-64
2022/02/05 11:35:18;;;;;;;;;;;3.50;99.90;;;;;;4935960;28;19930;-66
2022/02/05 11:37:52;;;;;;;;;;;3.50;99.90;;;;;;4937475;28;20039;-66
2022/02/05 11:40:37;;;;;;;;;;;3.60;99.90;;;;;;4936483;28;20345;-66
2022/02/05 11:43:14;;;;;;;;;;;3.60;99.90;;;;;;4936060;28;19970;-68
2022/02/05 11:46:10;;;;;;;;;;;3.60;99.90;;;;;;3356980;28;10020693;-68
2022/02/05 11:48:41;;;;;;;;;;;3.60;99.90;;;;;;3233863;28;10002270;-68
2022/02/05 11:51:10;;;;;;;;;;;3.60;99.90;;;;;;4935806;28;19969;-67
2022/02/05 11:53:54;;;;;;;;;;;3.70;99.90;;;;;;4936793;28;19930;-66
2022/02/05 11:56:22;;;;;;;;;;;3.70;99.90;;;;;;4937856;28;19993;-67
2022/02/05 11:58:57;;;;;;;;;;;3.70;99.90;;;;;;4935636;28;20025;-65
2022/02/05 12:01:34;;;;;;;;;;;3.70;99.90;;;;;;4936863;28;20017;-66
2022/02/05 12:04:12;;;;;;;;;;;3.70;99.90;;;;;;4936604;28;21312;-67
2022/02/05 12:06:52;;;;;;;;;;;3.80;99.90;;;;;;4939429;28;19973;-64
2022/02/05 12:09:40;;;;;;;;;;;3.80;99.90;;;;;;4934682;28;19930;-63
2022/02/05 12:12:22;;;;;;;;;;;3.80;99.90;;;;;;4937577;28;20336;-68
2022/02/05 12:15:11;;;;;;;;;;;3.80;99.90;;;;;;4933854;28;19926;-64
2022/02/05 12:17:54;;;;;;;;;;;3.80;99.90;;;;;;4936877;28;20424;-67
2022/02/05 12:20:28;;;;;;;;;;;3.90;99.90;;;;;;4938268;28;20020;-67
2022/02/05 12:22:59;;;;;;;;;;;3.80;99.90;;;;;;4935634;28;20001;-68
2022/02/05 12:25:26;;;;;;;;;;;3.90;99.90;;;;;;4937958;28;19937;-63
2022/02/05 12:27:52;;;;;;;;;;;3.90;99.90;;;;;;4935732;28;19937;-65
2022/02/05 12:30:35;;;;;;;;;;;3.90;99.90;;;;;;4937234;28;20041;-65
2022/02/05 12:33:03;;;;;;;;;;;3.90;99.90;;;;;;4934606;28;19931;-65
2022/02/05 12:35:31;;;;;;;;;;;3.90;99.90;;;;;;4937133;28;20050;-66
2022/02/05 12:38:02;;;;;;;;;;;3.90;99.90;;;;;;4935151;28;20821;-64
2022/02/05 12:40:30;;;;;;;;;;;3.90;99.90;;;;;;4936999;28;20016;-65
2022/02/05 12:42:58;;;;;;;;;;;3.90;99.90;;;;;;4933745;28;20384;-69
2022/02/05 12:45:46;;;;;;;;;;;3.90;99.90;;;;;;4936778;28;19981;-67
2022/02/05 12:48:17;;;;;;;;;;;3.90;99.90;;;;;;4936812;28;20064;-66
2022/02/05 12:50:44;;;;;;;;;;;3.90;99.90;;;;;;4935706;28;20304;-64
2022/02/05 12:53:11;;;;;;;;;;;3.90;99.90;;;;;;4935328;28;19948;-67
2022/02/05 12:55:45;;;;;;;;;;;3.90;99.90;;;;;;4930230;28;20013;-65
2022/02/05 12:58:15;;;;;;;;;;;3.90;99.90;;;;;;4931285;28;20621;-67
2022/02/05 13:00:41;;;;;;;;;;;3.90;99.90;;;;;;4929692;28;20022;-64
2022/02/05 13:03:24;;;;;;;;;;;3.90;99.90;;;;;;4934509;28;19930;-65
2022/02/05 13:05:51;;;;;;;;;;;3.90;99.90;;;;;;4934155;28;20025;-64
2022/02/05 13:08:18;;;;;;;;;;;3.90;99.90;;;;;;4935873;28;19937;-64
2022/02/05 13:10:46;;;;;;;;;;;3.90;99.90;;;;;;4932786;28;19977;-69
2022/02/05 13:13:13;;;;;;;;;;;4.00;99.90;;;;;;4934031;28;20017;-65
2022/02/05 13:16:00;;;;;;;;;;;3.90;99.90;;;;;;4934244;28;19937;-66
2022/02/05 13:18:41;;;;;;;;;;;4.00;99.90;;;;;;4934069;28;20020;-66
2022/02/05 13:26:54;;;;;;;;;;;3.90;99.90;;;;;;4938042;28;19926;-69
2022/02/05 13:29:38;;;;;;;;;;;3.90;99.90;;;;;;4934438;28;20449;-69
2022/02/05 13:35:00;;;;;;;;;;;3.90;99.90;;;;;;4936740;28;19966;-64
2022/02/05 13:37:32;;;;;;;;;;;3.90;99.90;;;;;;4939296;28;19930;-65
2022/02/05 13:40:01;;;;;;;;;;;3.90;99.90;;;;;;4936407;28;19930;-66
2022/02/05 13:42:33;;;;;;;;;;;3.90;99.90;;;;;;4898182;28;21196;-64
2022/02/05 13:45:31;;;;;;;;;;;3.90;99.90;;;;;;3937132;28;10001148;-64
2022/02/05 13:47:58;;;;;;;;;;;3.90;99.90;;;;;;4430364;28;10001865;-66
2022/02/05 13:50:26;;;;;;;;;;;3.90;99.90;;;;;;4938990;28;20033;-64
2022/02/05 13:53:04;;;;;;;;;;;4.00;99.90;;;;;;4932142;28;19934;-67
2022/02/05 13:55:33;;;;;;;;;;;4.00;99.90;;;;;;4938571;28;20038;-69
2022/02/05 13:58:02;;;;;;;;;;;3.90;99.90;;;;;;4932888;28;19940;-69
2022/02/05 14:00:37;;;;;;;;;;;3.90;99.90;;;;;;4939304;28;20017;-66
2022/02/05 14:03:05;;;;;;;;;;;3.90;99.90;;;;;;4934835;28;19973;-67
2022/02/05 14:05:32;;;;;;;;;;;3.80;99.90;;;;;;4931206;28;20020;-68
2022/02/05 14:07:59;;;;;;;;;;;3.90;99.90;;;;;;4934651;28;20044;-64
2022/02/05 14:10:26;;;;;;;;;;;3.90;99.90;;;;;;4935031;28;20068;-68
2022/02/05 14:12:53;;;;;;;;;;;3.90;99.90;;;;;;4934486;28;20941;-63
2022/02/05 14:15:21;;;;;;;;;;;3.90;99.90;;;;;;4930065;28;19993;-72
2022/02/05 14:18:02;;;;;;;;;;;3.90;99.90;;;;;;4932426;28;21294;-63
2022/02/05 14:20:30;;;;;;;;;;;3.90;99.90;;;;;;4935712;28;20362;-67
2022/02/05 14:23:07;;;;;;;;;;;3.90;99.90;;;;;;4934514;28;20249;-65
2022/02/05 14:25:52;;;;;;;;;;;3.90;99.90;;;;;;4929068;28;20057;-66
2022/02/05 14:28:34;;;;;;;;;;;3.90;99.90;;;;;;4934853;28;19930;-63
2022/02/05 14:31:07;;;;;;;;;;;3.90;99.90;;;;;;4933426;28;20060;-62
2022/02/05 14:34:34;;;;;;;;;;;3.90;99.90;;;;;;4932568;28;19970;-67
2022/02/05 14:41:51;;;;;;;;;;;3.90;99.90;;;;;;4933818;28;20029;-68
2022/02/05 14:44:18;;;;;;;;;;;4.00;99.90;;;;;;4927573;28;21777;-66
2022/02/05 14:46:45;;;;;;;;;;;3.90;99.90;;;;;;4928498;28;19937;-68
2022/02/05 14:49:13;;;;;;;;;;;3.90;99.90;;;;;;4950006;28;20616;-67
2022/02/05 14:51:40;;;;;;;;;;;3.90;99.90;;;;;;4937601;28;19949;-69
2022/02/05 14:54:07;;;;;;;;;;;3.90;99.90;;;;;;4932961;28;19930;-66
2022/02/05 14:56:35;;;;;;;;;;;3.90;99.90;;;;;;4935654;28;20029;-64
2022/02/05 14:59:04;;;;;;;;;;;3.80;99.90;;;;;;4932096;28;19946;-63
2022/02/05 15:01:31;;;;;;;;;;;3.80;99.90;;;;;;4933259;28;20041;-68
2022/02/05 15:03:58;;;;;;;;;;;3.80;99.90;;;;;;4934725;28;19938;-66
2022/02/05 15:06:26;;;;;;;;;;;3.80;99.90;;;;;;4932134;28;20336;-67
2022/02/05 15:08:56;;;;;;;;;;;3.80;99.90;;;;;;4928538;28;20051;-69
2022/02/05 15:11:24;;;;;;;;;;;3.80;99.90;;;;;;4933034;28;20017;-69
2022/02/05 15:13:52;;;;;;;;;;;3.90;99.90;;;;;;4933942;28;20296;-67
2022/02/05 15:16:21;;;;;;;;;;;3.90;99.90;;;;;;4932459;28;20039;-65
2022/02/05 15:18:58;;;;;;;;;;;3.90;99.90;;;;;;4930018;28;19930;-70
2022/02/05 15:21:27;;;;;;;;;;;3.90;99.90;;;;;;4932652;28;19930;-67
2022/02/05 15:23:54;;;;;;;;;;;3.90;99.90;;;;;;4932659;28;19934;-67
2022/02/05 15:26:21;;;;;;;;;;;3.90;99.90;;;;;;4931524;28;19930;-65
2022/02/05 15:28:48;;;;;;;;;;;3.90;99.90;;;;;;4930888;28;20155;-69
2022/02/05 15:31:16;;;;;;;;;;;4.00;99.90;;;;;;4935800;28;20651;-67
2022/02/05 15:33:44;;;;;;;;;;;3.90;99.90;;;;;;4935978;28;19930;-67
2022/02/05 15:36:15;;;;;;;;;;;3.80;99.90;;;;;;4933783;28;20017;-67
2022/02/05 15:39:02;;;;;;;;;;;3.80;99.90;;;;;;4932310;28;19931;-67
2022/02/05 15:44:53;;;;;;;;;;;3.70;99.90;;;;;;2605291;28;10002035;-69
2022/02/05 15:47:20;;;;;;;;;;;3.60;99.90;;;;;;3908660;28;10001531;-64
2022/02/05 15:49:46;;;;;;;;;;;3.60;99.90;;;;;;4931069;28;20025;-68
2022/02/05 15:52:13;;;;;;;;;;;3.50;99.90;;;;;;4934634;28;19956;-67
2022/02/05 15:54:41;;;;;;;;;;;3.50;99.90;;;;;;4934314;28;19930;-65
2022/02/05 15:57:20;;;;;;;;;;;3.50;99.90;;;;;;4932654;28;20296;-66
2022/02/05 16:02:17;;;;;;;;;;;3.40;99.90;;;;;;4935912;28;19930;-65
2022/02/05 16:04:44;;;;;;;;;;;3.40;99.90;;;;;;4930583;28;20025;-67
2022/02/05 16:07:10;;;;;;;;;;;3.40;99.90;;;;;;4932105;28;19937;-67
2022/02/05 16:09:38;;;;;;;;;;;3.40;99.90;;;;;;4932933;28;20381;-69
2022/02/05 16:12:05;;;;;;;;;;;3.50;99.90;;;;;;4933518;28;19930;-66
2022/02/05 16:14:32;;;;;;;;;;;3.50;99.90;;;;;;4933880;28;20042;-64
2022/02/05 16:17:01;;;;;;;;;;;3.50;99.90;;;;;;4933972;28;20024;-66
2022/02/05 16:19:32;;;;;;;;;;;3.50;99.90;;;;;;4935057;28;19941;-65
2022/02/05 16:21:59;;;;;;;;;;;3.50;99.90;;;;;;4934102;28;20050;-70
2022/02/05 16:24:26;;;;;;;;;;;3.50;99.90;;;;;;4932813;28;19929;-67
2022/02/05 16:26:52;;;;;;;;;;;3.50;99.90;;;;;;4929615;28;19930;-68
2022/02/05 16:29:25;;;;;;;;;;;3.50;99.90;;;;;;4934523;28;19934;-66
2022/02/05 16:31:53;;;;;;;;;;;3.50;99.90;;;;;;4931509;28;19930;-67
2022/02/05 16:34:21;;;;;;;;;;;3.50;99.90;;;;;;4959394;28;20149;-65
2022/02/05 16:36:50;;;;;;;;;;;3.40;99.90;;;;;;4931721;28;21014;-65
2022/02/05 16:39:20;;;;;;;;;;;3.40;99.90;;;;;;4932817;28;19926;-65
2022/02/05 16:41:46;;;;;;;;;;;3.40;99.90;;;;;;4930965;28;19978;-65
2022/02/05 16:44:13;;;;;;;;;;;3.40;99.90;;;;;;4935777;28;19992;-68
2022/02/05 16:46:41;;;;;;;;;;;3.40;99.90;;;;;;4931300;28;19930;-68
2022/02/05 16:49:09;;;;;;;;;;;3.40;99.90;;;;;;4930428;28;20021;-65
2022/02/05 16:51:37;;;;;;;;;;;3.40;99.90;;;;;;4929988;28;20036;-66
2022/02/05 16:54:04;;;;;;;;;;;3.40;99.90;;;;;;4935414;28;19930;-66
2022/02/05 16:56:36;;;;;;;;;;;3.40;99.90;;;;;;4939735;28;20016;-66
2022/02/05 16:59:04;;;;;;;;;;;3.40;99.90;;;;;;4936286;28;20012;-66
2022/02/05 17:01:32;;;;;;;;;;;3.40;99.90;;;;;;4933745;28;19973;-67
2022/02/05 17:03:59;;;;;;;;;;;3.30;99.90;;;;;;4931796;28;21687;-66
2022/02/05 17:06:28;;;;;;;;;;;3.30;99.90;;;;;;4938986;28;20000;-66
2022/02/05 17:08:56;;;;;;;;;;;3.30;99.90;;;;;;4936429;28;20515;-63
2022/02/05 17:11:23;;;;;;;;;;;3.30;99.90;;;;;;4938085;28;19930;-67
2022/02/05 17:13:54;;;;;;;;;;;3.30;99.90;;;;;;4937835;28;20063;-69
2022/02/05 17:16:21;;;;;;;;;;;3.30;99.90;;;;;;4938638;28;19930;-63
2022/02/05 17:18:47;;;;;;;;;;;3.40;99.90;;;;;;4936285;28;20036;-66
2022/02/05 17:21:14;;;;;;;;;;;3.40;99.90;;;;;;4938608;28;20909;-68
2022/02/05 17:23:43;;;;;;;;;;;3.40;99.90;;;;;;4931599;28;19938;-69
2022/02/05 17:26:15;;;;;;;;;;;3.50;99.90;;;;;;4933003;28;19930;-65
2022/02/05 17:28:46;;;;;;;;;;;3.40;99.90;;;;;;4933872;28;19930;-65
2022/02/05 17:31:14;;;;;;;;;;;3.50;99.90;;;;;;4938302;28;19930;-67
2022/02/05 17:33:41;;;;;;;;;;;3.50;99.90;;;;;;4937010;28;19984;-65
2022/02/05 17:36:15;;;;;;;;;;;3.50;99.90;;;;;;4961178;28;20035;-68
2022/02/05 17:38:42;;;;;;;;;;;3.40;99.90;;;;;;4932378;28;20807;-64
2022/02/05 17:41:09;;;;;;;;;;;3.40;99.90;;;;;;4935225;28;20634;-64